Est de Sabana, Puerto Rico
Current Conditions -  °F | °C
As of 12:50 PM on Sunday 23 Nov 2014 (Local Time) from TJIG Reporting Station
Scattered Clouds Scattered Clouds  
Wind Chill: 84°   Ceiling: Unl
Heat Index: 91°   Visibility: 10mi
Dew Point: 73°   Wind: 12mph
Humidity: 70%   Direction: 90°E
Pressure: 30.04"   Gusts: NA
Location:  18.4356°N, 66.6145°W
Report Text: TJIG 231650Z 09010KT 10SM SCT042 SCT140 29/23 A3004 RMK RY09 IN USE ATIS G
Loading
Personal Weather Stations






























Interactive Weather Map New forecast layout! Learn more

10-Day Weather Forecast

Advertisements
Track Severe Weather on mobile